createdAt,value
2018-07-31T00:02:26.050Z,23.8
2018-07-31T00:12:25.347Z,23.8
2018-07-31T00:22:24.539Z,23.8
2018-07-31T00:32:23.783Z,23.7
2018-07-31T00:42:23.030Z,23.6
2018-07-31T00:52:22.268Z,23.6
2018-07-31T01:02:21.511Z,23.6
2018-07-31T01:12:20.755Z,23.7
2018-07-31T01:22:20.000Z,23.7
2018-07-31T01:32:19.245Z,23.7
2018-07-31T01:42:18.488Z,23.8
2018-07-31T01:52:17.731Z,23.7
2018-07-31T02:02:16.975Z,23.8
2018-07-31T02:12:16.221Z,23.8
2018-07-31T02:22:15.456Z,23.8
2018-07-31T02:32:14.703Z,23.8
2018-07-31T02:42:13.943Z,23.7
2018-07-31T02:52:13.187Z,23.8
2018-07-31T03:02:12.434Z,23.8
2018-07-31T03:12:11.678Z,23.8
2018-07-31T03:22:10.919Z,23.7
2018-07-31T03:32:10.164Z,23.7
2018-07-31T03:42:09.407Z,23.7
2018-07-31T03:52:08.658Z,23.7
2018-07-31T04:02:07.893Z,23.7
2018-07-31T04:12:07.136Z,23.7
2018-07-31T04:22:06.432Z,23.7
2018-07-31T04:32:05.626Z,23.7
2018-07-31T04:42:04.868Z,23.7
2018-07-31T04:52:04.112Z,23.7
2018-07-31T05:02:03.357Z,23.7
2018-07-31T05:12:02.605Z,23.8
2018-07-31T05:22:01.847Z,23.8
2018-07-31T05:32:01.090Z,23.8
2018-07-31T05:42:00.332Z,23.9
2018-07-31T05:51:59.643Z,23.9
2018-07-31T06:01:58.816Z,23.9
2018-07-31T06:11:58.060Z,24.1
2018-07-31T06:21:57.305Z,24.2
2018-07-31T06:31:56.551Z,24.4
2018-07-31T06:41:55.796Z,24.6
2018-07-31T06:51:55.036Z,24.8
2018-07-31T07:01:54.279Z,24.9
2018-07-31T07:11:53.526Z,25.1
2018-07-31T07:21:52.765Z,25.2
2018-07-31T07:31:52.056Z,25.3
2018-07-31T07:41:51.252Z,25.4
2018-07-31T07:51:50.495Z,25.4
2018-07-31T08:01:49.735Z,25.4
2018-07-31T08:11:48.983Z,25.6
2018-07-31T08:21:48.227Z,25.8
2018-07-31T08:31:48.923Z,25.9
